createdAt,value
2022-09-02T00:00:20.449Z,4.65
2022-09-02T00:02:50.832Z,2.35
2022-09-02T00:05:21.906Z,2.47
2022-09-02T00:07:50.300Z,2.20
2022-09-02T00:10:18.846Z,2.28
2022-09-02T00:12:48.881Z,2.47
2022-09-02T00:15:17.275Z,5.38
2022-09-02T00:17:45.637Z,4.60
2022-09-02T00:20:14.533Z,3.78
2022-09-02T00:22:43.068Z,2.88
2022-09-02T00:25:12.153Z,3.83
2022-09-02T00:27:40.613Z,2.90
2022-09-02T00:30:10.887Z,3.83
2022-09-02T00:32:39.524Z,3.70
2022-09-02T00:35:08.593Z,5.28
2022-09-02T00:37:37.007Z,2.47
2022-09-02T00:40:06.505Z,5.10
2022-09-02T00:42:35.331Z,3.60
2022-09-02T00:45:05.030Z,2.58
2022-09-02T00:47:34.873Z,3.20
2022-09-02T00:50:03.297Z,2.50
2022-09-02T00:52:35.308Z,4.63
2022-09-02T00:55:08.193Z,2.80
2022-09-02T00:57:39.465Z,2.97
2022-09-02T01:00:09.622Z,5.20
2022-09-02T01:02:40.406Z,2.90
2022-09-02T01:05:10.811Z,2.67
2022-09-02T01:07:40.700Z,3.45
2022-09-02T01:10:10.760Z,3.55
2022-09-02T01:12:39.500Z,4.22
2022-09-02T01:15:10.605Z,2.30
2022-09-02T01:17:42.873Z,2.95
2022-09-02T01:20:12.895Z,2.45
2022-09-02T01:22:43.114Z,4.10
2022-09-02T01:25:13.540Z,5.00
2022-09-02T01:27:42.345Z,2.88
2022-09-02T01:30:13.144Z,5.50
2022-09-02T01:32:41.516Z,2.05
2022-09-02T01:35:11.097Z,2.35
2022-09-02T01:37:39.768Z,6.00
2022-09-02T01:40:11.511Z,2.63
2022-09-02T01:42:41.764Z,2.30
2022-09-02T01:45:10.815Z,2.42
2022-09-02T01:47:39.324Z,2.78
2022-09-02T01:50:08.877Z,5.63
2022-09-02T01:52:37.421Z,2.25
2022-09-02T01:55:06.254Z,4.13
2022-09-02T01:57:36.695Z,3.80
2022-09-02T02:00:07.410Z,4.45
2022-09-02T02:02:35.939Z,3.00
2022-09-02T02:05:04.604Z,3.47
2022-09-02T02:07:32.966Z,3.65
2022-09-02T02:10:01.451Z,4.22
2022-09-02T02:12:29.833Z,4.22
2022-09-02T02:14:59.724Z,2.40
2022-09-02T02:17:28.047Z,3.78
2022-09-02T02:19:56.438Z,2.45
2022-09-02T02:22:25.041Z,3.95
2022-09-02T02:24:53.673Z,5.07
2022-09-02T02:27:22.609Z,2.00
2022-09-02T02:29:51.158Z,2.25
2022-09-02T02:32:26.126Z,4.43
2022-09-02T02:34:56.336Z,2.95
2022-09-02T02:37:25.595Z,2.22
2022-09-02T02:39:54.263Z,4.03
2022-09-02T02:42:22.806Z,2.63
2022-09-02T02:44:51.196Z,4.53
2022-09-02T02:47:19.577Z,2.63
2022-09-02T02:49:49.361Z,5.20
2022-09-02T02:52:17.764Z,2.47
2022-09-02T02:54:46.219Z,2.28
2022-09-02T02:57:14.755Z,4.75
2022-09-02T02:59:43.182Z,4.57
2022-09-02T03:02:11.865Z,2.40
2022-09-02T03:04:41.237Z,5.00
2022-09-02T03:07:10.977Z,4.43
2022-09-02T03:09:39.347Z,3.67
2022-09-02T03:12:07.872Z,3.25
2022-09-02T03:14:37.315Z,1.80
2022-09-02T03:17:06.806Z,7.50
2022-09-02T03:19:35.215Z,4.20
2022-09-02T03:22:03.561Z,4.85
2022-09-02T03:24:33.306Z,5.22
2022-09-02T03:27:01.653Z,2.78
2022-09-02T03:29:30.132Z,3.67
2022-09-02T03:31:58.629Z,2.13
2022-09-02T03:34:27.049Z,6.13
2022-09-02T03:36:57.601Z,3.40
2022-09-02T03:39:25.988Z,3.75
2022-09-02T03:41:56.006Z,3.47
2022-09-02T03:44:24.388Z,5.07
2022-09-02T03:46:53.196Z,6.22
2022-09-02T03:49:21.566Z,3.63
2022-09-02T03:51:49.918Z,3.22
2022-09-02T03:54:18.444Z,4.72
2022-09-02T03:56:46.951Z,7.65
2022-09-02T03:59:16.720Z,3.45
2022-09-02T04:01:45.194Z,4.07
2022-09-02T04:04:13.601Z,3.83
2022-09-02T04:06:42.134Z,4.03
2022-09-02T04:09:10.512Z,3.33
2022-09-02T04:11:42.627Z,4.78
2022-09-02T04:14:11.351Z,2.80
2022-09-02T04:16:41.640Z,5.72
2022-09-02T04:19:10.564Z,4.07
2022-09-02T04:21:40.459Z,3.22
2022-09-02T04:24:10.408Z,5.13
2022-09-02T04:26:40.483Z,4.20
2022-09-02T04:29:13.767Z,4.55
2022-09-02T04:31:43.540Z,3.08
2022-09-02T04:34:11.955Z,6.30
2022-09-02T04:36:40.320Z,8.00
2022-09-02T04:39:09.187Z,4.53
2022-09-02T04:41:38.067Z,6.70
2022-09-02T04:44:07.341Z,3.20
2022-09-02T04:46:35.707Z,4.90
2022-09-02T04:49:05.556Z,4.78
2022-09-02T04:51:33.930Z,2.78
2022-09-02T04:54:02.917Z,6.47
2022-09-02T04:56:32.252Z,7.00
2022-09-02T04:59:00.717Z,9.45
2022-09-02T05:01:30.778Z,6.15
2022-09-02T05:03:59.673Z,7.28
2022-09-02T05:06:29.855Z,3.20
2022-09-02T05:08:59.873Z,3.83
2022-09-02T05:11:29.452Z,5.22
2022-09-02T05:13:59.387Z,9.40
2022-09-02T05:16:29.048Z,5.15
2022-09-02T05:18:57.603Z,6.30
2022-09-02T05:21:25.983Z,6.20
2022-09-02T05:23:55.793Z,4.05
2022-09-02T05:26:24.145Z,5.32
2022-09-02T05:28:52.615Z,5.82
2022-09-02T05:31:22.439Z,4.75
2022-09-02T05:33:51.052Z,4.32
2022-09-02T05:36:20.693Z,4.63
2022-09-02T05:38:49.114Z,5.63
2022-09-02T05:41:23.348Z,5.43
2022-09-02T05:43:52.152Z,3.22
2022-09-02T05:46:23.331Z,7.57
2022-09-02T05:49:07.639Z,9.60
2022-09-02T05:51:40.981Z,7.05
2022-09-02T05:54:10.334Z,13.80
2022-09-02T05:56:41.008Z,9.38
2022-09-02T05:59:14.177Z,6.93
2022-09-02T06:01:42.863Z,10.70
2022-09-02T06:04:11.388Z,15.57
2022-09-02T06:06:39.733Z,11.25
2022-09-02T06:09:09.442Z,12.07
2022-09-02T06:11:39.664Z,11.65
2022-09-02T06:14:09.777Z,10.68
2022-09-02T06:16:39.487Z,12.85
2022-09-02T06:19:07.915Z,9.60
2022-09-02T06:21:37.559Z,7.93
2022-09-02T06:24:06.837Z,10.52
2022-09-02T06:26:35.188Z,10.48
2022-09-02T06:29:03.521Z,7.43
2022-09-02T06:31:34.471Z,6.78
2022-09-02T06:34:04.707Z,9.13
2022-09-02T06:36:33.328Z,9.93
2022-09-02T06:39:02.210Z,9.20
2022-09-02T06:41:31.446Z,8.70
2022-09-02T06:44:00.480Z,7.15
2022-09-02T06:46:30.011Z,9.63
2022-09-02T06:48:59.909Z,11.57
2022-09-02T06:51:29.072Z,6.13
2022-09-02T06:53:57.661Z,6.50
2022-09-02T06:56:27.525Z,7.47
2022-09-02T06:58:56.011Z,6.50
2022-09-02T07:01:25.685Z,8.63
2022-09-02T07:04:12.013Z,5.40
2022-09-02T07:06:42.767Z,9.05
2022-09-02T07:09:11.884Z,4.80
2022-09-02T07:11:40.533Z,7.03
2022-09-02T07:14:08.920Z,5.90
2022-09-02T07:16:38.521Z,8.05
2022-09-02T07:19:12.446Z,9.43
2022-09-02T07:21:44.086Z,8.43
2022-09-02T07:24:13.203Z,5.45
2022-09-02T07:26:41.846Z,9.68
2022-09-02T07:29:10.742Z,5.38
2022-09-02T07:31:40.382Z,6.05
2022-09-02T07:34:10.140Z,5.57
2022-09-02T07:36:38.949Z,2.53
2022-09-02T07:39:10.108Z,3.97
2022-09-02T07:41:39.387Z,4.65
2022-09-02T07:44:08.491Z,3.83
2022-09-02T07:46:37.549Z,4.07
2022-09-02T07:49:09.403Z,4.07
2022-09-02T07:51:38.752Z,4.97
2022-09-02T07:54:08.524Z,4.38
2022-09-02T07:56:38.688Z,7.03
2022-09-02T07:59:07.036Z,5.22
2022-09-02T08:01:35.627Z,3.28
2022-09-02T08:04:06.195Z,7.97
2022-09-02T08:06:36.138Z,5.88
2022-09-02T08:09:06.665Z,4.93
2022-09-02T08:11:39.886Z,9.10
2022-09-02T08:14:12.072Z,5.60
2022-09-02T08:16:41.013Z,7.55
2022-09-02T08:19:10.161Z,8.27
2022-09-02T08:21:38.556Z,6.85
2022-09-02T08:24:07.048Z,9.77
2022-09-02T08:26:37.286Z,9.00
2022-09-02T08:29:05.862Z,8.07
2022-09-02T08:31:35.949Z,7.57
2022-09-02T08:34:04.388Z,10.73
2022-09-02T08:36:32.826Z,6.32
2022-09-02T08:39:03.279Z,6.18
2022-09-02T08:41:36.029Z,4.32
2022-09-02T08:44:05.122Z,5.78
2022-09-02T08:46:36.094Z,6.95
2022-09-02T08:49:08.216Z,4.55
2022-09-02T08:51:38.931Z,7.50
2022-09-02T08:54:10.221Z,3.92
2022-09-02T08:56:38.660Z,8.65
2022-09-02T08:59:09.480Z,4.60
2022-09-02T09:01:44.461Z,5.45
2022-09-02T09:04:30.584Z,6.05
2022-09-02T09:07:15.215Z,5.40
2022-09-02T09:09:49.424Z,5.97
2022-09-02T09:12:20.281Z,3.45
2022-09-02T09:14:52.138Z,4.85
2022-09-02T09:17:26.314Z,3.60
2022-09-02T09:19:58.272Z,2.78
2022-09-02T09:22:29.274Z,3.50
2022-09-02T09:24:58.985Z,5.57
2022-09-02T09:27:28.357Z,4.05
2022-09-02T09:29:56.827Z,3.42
2022-09-02T09:32:28.390Z,3.80
2022-09-02T09:35:00.131Z,2.40
2022-09-02T09:37:36.870Z,4.35
2022-09-02T09:40:23.362Z,2.40
2022-09-02T09:42:55.317Z,2.80
2022-09-02T09:45:28.059Z,2.28
2022-09-02T09:48:13.607Z,3.80
2022-09-02T09:50:42.125Z,3.90
2022-09-02T09:53:17.358Z,5.35
2022-09-02T09:55:52.878Z,4.22
2022-09-02T09:58:21.946Z,3.78
2022-09-02T10:00:51.694Z,2.10
2022-09-02T10:03:24.266Z,2.33
2022-09-02T10:05:55.388Z,2.03
2022-09-02T10:08:25.201Z,2.78
2022-09-02T10:11:01.069Z,2.60
2022-09-02T10:13:30.939Z,2.00
2022-09-02T10:16:11.579Z,2.88
2022-09-02T10:18:43.291Z,3.25
2022-09-02T10:21:16.183Z,2.58
2022-09-02T10:23:49.559Z,3.00
2022-09-02T10:26:22.197Z,2.72
2022-09-02T10:29:04.129Z,2.08
2022-09-02T10:31:38.430Z,2.60
2022-09-02T10:34:13.858Z,1.95
2022-09-02T10:36:47.738Z,2.20
2022-09-02T10:39:22.409Z,2.20
2022-09-02T10:41:52.214Z,1.90
2022-09-02T10:44:32.740Z,2.03
2022-09-02T10:47:02.511Z,2.47
2022-09-02T10:49:48.898Z,3.08
2022-09-02T10:52:27.725Z,3.78
2022-09-02T10:55:01.665Z,2.22
2022-09-02T10:57:33.139Z,2.85
2022-09-02T11:00:05.598Z,4.03
2022-09-02T11:02:37.515Z,2.95
2022-09-02T11:05:09.694Z,4.97
2022-09-02T11:07:43.610Z,5.28
2022-09-02T11:10:14.485Z,3.50
2022-09-02T11:12:47.245Z,6.47
2022-09-02T11:15:22.259Z,3.55
2022-09-02T11:17:55.318Z,1.98
2022-09-02T11:20:30.175Z,3.47
2022-09-02T11:23:03.395Z,1.92
2022-09-02T11:25:35.605Z,1.80
2022-09-02T11:28:09.025Z,4.82
2022-09-02T11:30:42.357Z,3.40
2022-09-02T11:33:15.511Z,1.98
2022-09-02T11:35:45.880Z,6.10
2022-09-02T11:38:25.050Z,1.95
2022-09-02T11:46:47.461Z,2.30
2022-09-02T11:49:36.471Z,2.15
2022-09-02T11:52:07.295Z,2.20
2022-09-02T11:54:40.147Z,2.75
2022-09-02T11:57:09.005Z,2.67
2022-09-02T11:59:56.040Z,2.50
2022-09-02T12:02:34.229Z,2.38
2022-09-02T12:05:17.508Z,2.00
2022-09-02T12:07:49.215Z,3.88
2022-09-02T12:10:35.065Z,2.70
2022-09-02T12:13:08.071Z,2.47
2022-09-02T12:15:37.176Z,5.18
2022-09-02T12:18:12.226Z,2.08
2022-09-02T12:21:16.006Z,3.95
2022-09-02T12:24:09.051Z,3.80
2022-09-02T12:26:55.944Z,1.60
2022-09-02T12:29:34.417Z,2.50
2022-09-02T12:32:02.858Z,1.77
2022-09-02T12:34:49.965Z,2.25
2022-09-02T12:37:33.183Z,2.17
2022-09-02T12:42:43.073Z,2.53
2022-09-02T12:45:29.042Z,3.28
2022-09-02T12:48:00.670Z,3.33
2022-09-02T12:50:32.431Z,2.55
2022-09-02T12:53:10.430Z,1.80
2022-09-02T12:55:40.033Z,3.30
2022-09-02T12:58:11.082Z,1.80
2022-09-02T13:00:45.854Z,2.85
2022-09-02T13:03:25.801Z,4.30
2022-09-02T13:05:57.097Z,2.10
2022-09-02T13:08:41.409Z,3.75
2022-09-02T13:12:43.522Z,2.03
2022-09-02T13:15:35.613Z,3.22
2022-09-02T13:18:14.279Z,2.72
2022-09-02T13:20:59.242Z,3.45
2022-09-02T13:23:48.571Z,2.65
2022-09-02T13:26:45.910Z,1.73
2022-09-02T13:29:30.456Z,5.15
2022-09-02T13:32:05.055Z,2.05
2022-09-02T13:34:33.747Z,1.70
2022-09-02T13:37:02.151Z,1.52
2022-09-02T13:39:31.084Z,2.03
2022-09-02T13:41:59.489Z,2.67
2022-09-02T13:44:29.630Z,1.88
2022-09-02T13:47:03.523Z,1.77
2022-09-02T13:49:37.814Z,3.47
2022-09-02T13:52:07.416Z,6.28
2022-09-02T13:54:36.655Z,3.72
2022-09-02T13:57:06.828Z,2.50
2022-09-02T13:59:36.555Z,2.50
2022-09-02T14:02:22.531Z,1.92
2022-09-02T14:04:55.408Z,3.95
2022-09-02T14:07:26.397Z,2.67
2022-09-02T14:09:58.881Z,3.13
2022-09-02T14:12:28.186Z,1.75
2022-09-02T14:14:56.895Z,3.30
2022-09-02T14:17:25.945Z,3.28
2022-09-02T14:20:09.845Z,2.97
2022-09-02T14:22:39.678Z,2.63
2022-09-02T14:25:11.557Z,3.90
2022-09-02T14:27:40.829Z,3.35
2022-09-02T14:30:10.370Z,3.20
2022-09-02T14:32:38.790Z,3.47
2022-09-02T14:35:13.821Z,3.20
2022-09-02T14:37:55.923Z,2.15
2022-09-02T14:40:34.829Z,2.05
2022-09-02T14:43:03.531Z,3.90
2022-09-02T14:45:32.879Z,2.10
2022-09-02T14:48:02.610Z,2.65
2022-09-02T14:50:36.579Z,3.63
2022-09-02T14:53:06.882Z,2.00
2022-09-02T14:55:52.632Z,1.90
2022-09-02T14:58:24.772Z,5.40
2022-09-02T15:00:56.301Z,3.05
2022-09-02T15:03:24.896Z,2.72
2022-09-02T15:05:54.905Z,4.00
2022-09-02T15:08:23.645Z,1.90
2022-09-02T15:10:52.285Z,3.03
2022-09-02T15:13:25.238Z,2.72
2022-09-02T15:15:55.510Z,2.40
2022-09-02T15:18:24.222Z,2.63
2022-09-02T15:20:52.805Z,2.22
2022-09-02T15:23:22.865Z,3.00
2022-09-02T15:25:51.361Z,2.08
2022-09-02T15:28:19.763Z,2.10
2022-09-02T15:30:48.227Z,3.28
2022-09-02T15:33:17.748Z,5.55
2022-09-02T15:35:46.847Z,3.55
2022-09-02T15:38:15.239Z,2.60
2022-09-02T15:40:45.308Z,2.97
2022-09-02T15:43:13.954Z,3.45
2022-09-02T15:45:46.474Z,3.17
2022-09-02T15:48:14.919Z,1.70
2022-09-02T15:50:45.613Z,2.47
2022-09-02T15:53:16.066Z,2.55
2022-09-02T15:55:46.161Z,2.28
2022-09-02T15:58:14.500Z,5.32
2022-09-02T16:00:43.939Z,3.97
2022-09-02T16:03:12.487Z,3.80
2022-09-02T16:05:43.232Z,4.13
2022-09-02T16:08:11.663Z,3.60
2022-09-02T16:10:40.428Z,3.17
2022-09-02T16:13:10.190Z,2.63
2022-09-02T16:15:38.576Z,3.00
2022-09-02T16:18:07.008Z,2.10
2022-09-02T16:20:35.398Z,3.70
2022-09-02T16:23:03.757Z,3.33
2022-09-02T16:25:32.242Z,2.25
2022-09-02T16:28:01.544Z,3.95
2022-09-02T16:30:31.386Z,4.78
2022-09-02T16:33:00.012Z,2.20
2022-09-02T16:35:28.516Z,2.28
2022-09-02T16:37:57.461Z,2.60
2022-09-02T16:40:26.083Z,1.55
2022-09-02T16:42:54.433Z,3.53
2022-09-02T16:45:22.829Z,2.33
2022-09-02T16:47:52.544Z,2.00
2022-09-02T16:50:20.950Z,2.05
2022-09-02T16:52:49.373Z,2.63
2022-09-02T16:55:18.789Z,3.53
2022-09-02T16:57:47.248Z,2.42
2022-09-02T17:00:16.656Z,5.00
2022-09-02T17:02:45.066Z,5.03
2022-09-02T17:05:17.453Z,2.25
2022-09-02T17:07:46.775Z,2.00
2022-09-02T17:10:15.208Z,8.20
2022-09-02T17:12:43.642Z,2.10
2022-09-02T17:15:12.379Z,5.38
2022-09-02T18:19:13.134Z,2.92
2022-09-02T18:21:49.846Z,3.83
2022-09-02T18:24:25.771Z,5.95
2022-09-02T18:27:13.067Z,1.80
2022-09-02T18:29:53.954Z,3.03
2022-09-02T18:32:30.101Z,1.90
2022-09-02T18:35:07.460Z,3.22
2022-09-02T18:37:45.880Z,3.50
2022-09-02T18:40:20.208Z,3.15
2022-09-02T18:42:52.308Z,3.22
2022-09-02T18:45:24.016Z,3.80
2022-09-02T18:47:55.646Z,2.05
2022-09-02T18:50:47.397Z,4.57
2022-09-02T18:53:16.383Z,2.20
2022-09-02T18:55:46.240Z,3.20
2022-09-02T18:58:17.265Z,3.65
2022-09-02T19:00:51.131Z,3.67
2022-09-02T19:03:19.835Z,4.28
2022-09-02T19:05:49.665Z,4.70
2022-09-02T19:08:32.792Z,2.55
2022-09-02T19:11:03.081Z,2.67
2022-09-02T19:13:33.287Z,5.82
2022-09-02T19:16:04.287Z,2.13
2022-09-02T19:18:33.383Z,3.15
2022-09-02T19:21:03.305Z,2.25
2022-09-02T19:23:33.023Z,3.42
2022-09-02T19:26:02.857Z,6.07
2022-09-02T19:28:31.752Z,2.22
2022-09-02T19:31:03.322Z,2.08
2022-09-02T19:33:34.001Z,5.65
2022-09-02T19:36:05.137Z,3.67
2022-09-02T19:38:33.757Z,2.25
2022-09-02T19:41:02.781Z,4.47
2022-09-02T19:43:31.557Z,3.42
2022-09-02T19:46:01.445Z,2.65
2022-09-02T19:48:30.322Z,3.72
2022-09-02T19:50:58.887Z,2.33
2022-09-02T19:53:30.317Z,2.30
2022-09-02T19:55:59.114Z,3.58
2022-09-02T19:58:27.781Z,2.97
2022-09-02T20:00:57.114Z,2.85
2022-09-02T20:03:25.743Z,3.28
2022-09-02T20:05:54.576Z,4.28
2022-09-02T20:08:28.929Z,3.20
2022-09-02T20:11:00.062Z,2.35
2022-09-02T20:13:29.138Z,3.70
2022-09-02T20:15:58.111Z,4.38
2022-09-02T20:18:27.827Z,2.92
2022-09-02T20:20:58.879Z,5.30
2022-09-02T20:23:28.589Z,3.03
2022-09-02T20:26:06.519Z,2.15
2022-09-02T20:28:37.706Z,3.25
2022-09-02T20:31:11.818Z,3.63
2022-09-02T20:33:43.448Z,3.33
2022-09-02T20:36:18.235Z,2.55
2022-09-02T20:39:05.754Z,2.25
2022-09-02T20:41:40.028Z,3.75
2022-09-02T20:44:20.229Z,2.92
2022-09-02T20:46:57.032Z,2.78
2022-09-02T20:49:35.157Z,2.15
2022-09-02T20:52:06.735Z,2.13
2022-09-02T20:54:41.375Z,3.53
2022-09-02T20:57:18.810Z,4.50
2022-09-02T20:59:53.177Z,3.58
2022-09-02T21:02:23.135Z,2.35
2022-09-02T21:04:54.097Z,3.55
2022-09-02T21:07:25.061Z,2.33
2022-09-02T21:09:57.387Z,3.22
2022-09-02T21:12:32.417Z,3.70
2022-09-02T21:15:06.090Z,2.63
2022-09-02T21:17:39.756Z,3.80
2022-09-02T21:20:11.851Z,2.25
2022-09-02T21:22:41.948Z,3.53
2022-09-02T21:25:11.342Z,2.45
2022-09-02T21:27:45.530Z,2.20
2022-09-02T21:30:15.427Z,4.93
2022-09-02T21:32:45.671Z,2.22
2022-09-02T21:35:15.633Z,2.85
2022-09-02T21:37:45.778Z,3.35
2022-09-02T21:40:16.342Z,3.80
2022-09-02T21:42:55.829Z,2.78
2022-09-02T21:45:26.560Z,2.85
2022-09-02T21:47:59.378Z,2.45
2022-09-02T21:50:30.435Z,3.90
2022-09-02T21:53:02.589Z,3.50
2022-09-02T21:55:38.044Z,2.20
2022-09-02T21:58:17.323Z,2.95
2022-09-02T22:00:47.813Z,3.88
2022-09-02T22:03:21.095Z,2.75
2022-09-02T22:05:50.874Z,3.72
2022-09-02T22:08:25.763Z,2.50
2022-09-02T22:10:59.348Z,7.80
2022-09-02T22:13:31.825Z,2.00
2022-09-02T22:16:03.432Z,2.60
2022-09-02T22:18:35.684Z,2.00
2022-09-02T22:21:08.246Z,3.30
2022-09-02T22:23:37.198Z,2.35
2022-09-02T22:26:09.282Z,2.15
2022-09-02T22:28:41.045Z,3.83
2022-09-02T22:31:12.152Z,5.00
2022-09-02T22:33:46.166Z,3.47
2022-09-02T22:36:18.801Z,3.22
2022-09-02T22:38:48.647Z,3.65
2022-09-02T22:41:20.165Z,1.88
2022-09-02T22:43:53.693Z,2.67
2022-09-02T22:46:53.977Z,5.50
2022-09-02T22:49:37.469Z,3.58
2022-09-02T22:52:25.906Z,2.53
2022-09-02T22:54:54.276Z,3.50
2022-09-02T22:57:30.921Z,6.85
2022-09-02T23:00:03.513Z,1.77
2022-09-02T23:02:33.312Z,2.47
2022-09-02T23:05:33.377Z,3.63
2022-09-02T23:08:01.903Z,2.90
2022-09-02T23:10:30.260Z,2.33
2022-09-02T23:13:04.026Z,3.33
2022-09-02T23:15:37.485Z,2.00
2022-09-02T23:18:08.999Z,2.25
2022-09-02T23:20:44.542Z,2.55
2022-09-02T23:23:17.039Z,2.65
2022-09-02T23:25:53.308Z,2.35
2022-09-02T23:28:28.316Z,3.15
2022-09-02T23:31:03.953Z,3.25
2022-09-02T23:33:37.635Z,2.20
2022-09-02T23:36:11.754Z,3.65
2022-09-02T23:38:49.827Z,2.00
2022-09-02T23:41:18.419Z,2.47
2022-09-02T23:43:47.111Z,2.80
2022-09-02T23:46:20.678Z,4.10
2022-09-02T23:48:56.870Z,2.78
2022-09-02T23:51:29.701Z,2.35
2022-09-02T23:54:07.126Z,2.95
2022-09-02T23:56:43.041Z,1.90
2022-09-02T23:59:24.138Z,1.60
